createdAt,value
2023-01-11T00:02:26.342Z,7.91
2023-01-11T00:04:52.869Z,7.93
2023-01-11T00:07:19.279Z,7.92
2023-01-11T00:09:47.790Z,7.98
2023-01-11T00:12:15.024Z,7.99
2023-01-11T00:14:41.423Z,8.01
2023-01-11T00:17:07.886Z,7.98
2023-01-11T00:19:34.270Z,7.95
2023-01-11T00:22:00.824Z,8.01
2023-01-11T00:24:27.211Z,8.04
2023-01-11T00:26:53.615Z,8.04
2023-01-11T00:29:20.047Z,8.11
2023-01-11T00:31:46.464Z,8.11
2023-01-11T00:34:12.891Z,8.15
2023-01-11T00:36:39.344Z,8.14
2023-01-11T00:39:05.870Z,8.18
2023-01-11T00:41:50.963Z,8.19
2023-01-11T00:44:35.894Z,8.22
2023-01-11T00:47:21.210Z,8.25
2023-01-11T00:49:47.708Z,8.23
2023-01-11T00:52:14.291Z,8.28
2023-01-11T00:54:41.544Z,8.35
2023-01-11T00:57:08.384Z,8.37
2023-01-11T00:59:35.686Z,8.41
2023-01-11T01:02:02.728Z,8.42
2023-01-11T01:04:29.172Z,8.41
2023-01-11T01:06:55.601Z,8.48
2023-01-11T01:09:22.256Z,8.48
2023-01-11T01:11:48.816Z,8.50
2023-01-11T01:14:28.816Z,8.52
2023-01-11T01:16:56.730Z,8.56
2023-01-11T01:19:23.746Z,8.55
2023-01-11T01:21:50.996Z,8.60
2023-01-11T01:24:17.527Z,8.56
2023-01-11T01:26:44.061Z,8.59
2023-01-11T01:29:11.716Z,8.61
2023-01-11T01:31:38.404Z,8.60
2023-01-11T01:34:06.479Z,8.57
2023-01-11T01:36:33.424Z,8.62
2023-01-11T01:39:00.911Z,8.61
2023-01-11T01:41:28.004Z,8.62
2023-01-11T01:43:58.738Z,8.66
2023-01-11T01:46:31.429Z,8.64
2023-01-11T01:49:13.587Z,8.69
2023-01-11T01:51:42.880Z,8.71
2023-01-11T01:54:12.833Z,8.71
2023-01-11T01:56:44.173Z,8.71
2023-01-11T01:59:13.028Z,8.75
2023-01-11T02:01:49.774Z,8.76
2023-01-11T02:04:26.153Z,8.77
2023-01-11T02:07:39.227Z,8.82
2023-01-11T02:10:12.099Z,8.81
2023-01-11T02:12:51.938Z,8.76
2023-01-11T02:15:20.329Z,8.78
2023-01-11T02:17:47.010Z,8.78
2023-01-11T02:20:31.228Z,8.82
2023-01-11T02:23:22.465Z,8.87
2023-01-11T02:26:16.857Z,8.91
2023-01-11T02:28:56.416Z,8.86
2023-01-11T02:31:43.774Z,8.93
2023-01-11T02:34:32.596Z,8.93
2023-01-11T02:37:28.258Z,8.94
2023-01-11T02:40:22.343Z,9.05
2023-01-11T02:43:10.801Z,9.09
2023-01-11T02:45:50.844Z,9.16
2023-01-11T02:48:23.232Z,9.20
2023-01-11T02:50:56.082Z,9.25
2023-01-11T02:53:54.316Z,9.29
2023-01-11T02:56:23.552Z,9.31
2023-01-11T02:58:51.395Z,9.32
2023-01-11T03:01:19.768Z,9.35
2023-01-11T03:03:46.261Z,9.35
2023-01-11T03:06:20.636Z,9.35
2023-01-11T03:08:59.794Z,9.40
2023-01-11T03:11:57.269Z,9.39
2023-01-11T03:14:32.809Z,9.40
2023-01-11T03:17:15.258Z,9.46
2023-01-11T03:19:52.058Z,9.50
2023-01-11T03:22:22.557Z,9.50
2023-01-11T03:25:01.294Z,9.52
2023-01-11T03:27:39.313Z,9.54
2023-01-11T03:30:09.099Z,9.51
2023-01-11T03:32:47.346Z,9.50
2023-01-11T03:35:30.526Z,9.53
2023-01-11T03:38:23.188Z,9.55
2023-01-11T03:40:56.143Z,9.58
2023-01-11T03:43:24.209Z,9.61
2023-01-11T03:46:04.920Z,9.57
2023-01-11T03:48:36.615Z,9.59
2023-01-11T03:51:05.062Z,9.64
2023-01-11T03:53:34.455Z,9.61
2023-01-11T03:56:01.692Z,9.54
2023-01-11T03:58:28.490Z,9.52
2023-01-11T04:00:59.342Z,9.56
2023-01-11T04:03:27.210Z,9.58
2023-01-11T04:05:58.001Z,9.64
2023-01-11T04:08:24.503Z,9.62
2023-01-11T04:10:51.036Z,9.68
2023-01-11T04:13:17.513Z,9.62
2023-01-11T04:15:43.886Z,9.61
2023-01-11T04:18:10.360Z,9.68
2023-01-11T04:20:39.038Z,9.72
2023-01-11T04:23:06.509Z,9.72
2023-01-11T04:25:33.311Z,9.74
2023-01-11T04:28:00.110Z,9.77
2023-01-11T04:30:27.021Z,9.78
2023-01-11T04:32:53.677Z,9.79
2023-01-11T04:35:20.069Z,9.80
2023-01-11T04:37:46.880Z,9.84
2023-01-11T04:40:13.998Z,9.87
2023-01-11T04:42:40.387Z,9.91
2023-01-11T04:45:07.340Z,9.91
2023-01-11T04:47:33.974Z,9.93
2023-01-11T04:50:00.642Z,9.95
2023-01-11T04:52:27.113Z,9.99
2023-01-11T04:54:54.114Z,10.04
2023-01-11T04:57:22.175Z,10.02
2023-01-11T04:59:48.873Z,10.07
2023-01-11T05:02:15.988Z,10.15
2023-01-11T05:04:42.773Z,10.21
2023-01-11T05:07:09.905Z,10.21
2023-01-11T05:09:36.895Z,10.18
2023-01-11T05:12:03.370Z,10.21
2023-01-11T05:14:29.788Z,10.21
2023-01-11T05:16:56.492Z,10.30
2023-01-11T05:19:23.497Z,10.30
2023-01-11T05:21:50.324Z,10.30
2023-01-11T05:24:17.437Z,10.33
2023-01-11T05:26:46.411Z,10.36
2023-01-11T05:29:16.309Z,10.37
2023-01-11T05:31:43.005Z,10.38
2023-01-11T05:34:12.084Z,10.37
2023-01-11T05:36:39.471Z,10.40
2023-01-11T05:39:06.125Z,10.43
2023-01-11T05:41:32.773Z,10.41
2023-01-11T05:44:18.021Z,10.41
2023-01-11T05:46:45.237Z,10.42
2023-01-11T05:49:12.786Z,10.43
2023-01-11T05:51:39.277Z,10.47
2023-01-11T05:54:07.880Z,10.41
2023-01-11T05:56:34.723Z,10.44
2023-01-11T05:59:01.554Z,10.46
2023-01-11T06:01:28.020Z,10.47
2023-01-11T06:03:55.056Z,10.50
2023-01-11T06:06:22.096Z,10.54
2023-01-11T06:08:49.261Z,10.53
2023-01-11T06:11:16.107Z,10.58
2023-01-11T06:13:42.990Z,10.56
2023-01-11T06:16:12.079Z,10.58
2023-01-11T06:18:40.435Z,10.58
2023-01-11T06:21:08.227Z,10.61
2023-01-11T06:23:37.683Z,10.65
2023-01-11T06:26:06.061Z,10.67
2023-01-11T06:28:32.549Z,10.68
2023-01-11T06:31:00.033Z,10.68
2023-01-11T06:33:28.528Z,10.68
2023-01-11T06:35:55.599Z,10.68
2023-01-11T06:38:24.019Z,10.68
2023-01-11T06:40:56.053Z,10.69
2023-01-11T06:43:23.956Z,10.65
2023-01-11T06:45:51.733Z,10.64
2023-01-11T06:48:18.827Z,10.67
2023-01-11T06:50:53.314Z,10.66
2023-01-11T06:53:20.352Z,10.65
2023-01-11T06:55:51.231Z,10.63
2023-01-11T06:58:17.643Z,10.65
2023-01-11T07:00:44.349Z,10.64
2023-01-11T07:03:12.307Z,10.68
2023-01-11T07:05:39.679Z,10.73
2023-01-11T07:08:06.647Z,10.70
2023-01-11T07:10:33.277Z,10.68
2023-01-11T07:13:00.324Z,10.73
2023-01-11T07:15:26.798Z,10.75
2023-01-11T07:17:54.766Z,10.76
2023-01-11T07:20:22.006Z,10.79
2023-01-11T07:22:48.555Z,10.83
2023-01-11T07:25:15.205Z,10.80
2023-01-11T07:27:41.982Z,10.81
2023-01-11T07:30:09.989Z,10.85
2023-01-11T07:32:36.666Z,10.89
2023-01-11T07:35:03.624Z,10.88
2023-01-11T07:37:32.870Z,10.90
2023-01-11T07:39:59.470Z,10.90
2023-01-11T07:42:44.564Z,11.00
2023-01-11T07:45:11.381Z,11.02
2023-01-11T07:47:37.826Z,11.03
2023-01-11T07:50:04.756Z,11.04
2023-01-11T07:52:31.383Z,11.03
2023-01-11T07:55:02.396Z,11.03
2023-01-11T07:57:29.939Z,11.05
2023-01-11T07:59:56.588Z,11.06
2023-01-11T08:02:23.133Z,11.06
2023-01-11T08:04:50.411Z,11.01
2023-01-11T08:07:20.003Z,10.89
2023-01-11T08:09:46.644Z,10.88
2023-01-11T08:12:31.724Z,10.69
2023-01-11T08:14:58.358Z,10.57
2023-01-11T08:17:24.862Z,10.54
2023-01-11T08:19:51.300Z,10.52
2023-01-11T08:22:18.143Z,10.55
2023-01-11T08:24:44.808Z,10.43
2023-01-11T08:27:11.342Z,10.45
2023-01-11T08:29:38.100Z,10.50
2023-01-11T08:32:04.691Z,10.47
2023-01-11T08:34:32.065Z,10.47
2023-01-11T08:37:02.049Z,10.48
2023-01-11T08:39:32.063Z,10.48
2023-01-11T08:41:59.055Z,10.48
2023-01-11T08:44:33.829Z,10.50
2023-01-11T08:47:00.944Z,10.49
2023-01-11T08:49:27.566Z,10.50
2023-01-11T08:51:54.096Z,10.48
2023-01-11T08:54:20.716Z,10.48
2023-01-11T08:56:47.140Z,10.51
2023-01-11T08:59:13.715Z,10.48
2023-01-11T09:01:40.604Z,10.48
2023-01-11T09:04:19.115Z,10.52
2023-01-11T09:06:49.780Z,10.55
2023-01-11T09:09:16.325Z,10.61
2023-01-11T09:11:54.973Z,10.59
2023-01-11T09:14:25.676Z,10.64
2023-01-11T09:16:53.180Z,10.65
2023-01-11T09:19:19.956Z,10.66
2023-01-11T09:21:46.635Z,10.66
2023-01-11T09:24:13.775Z,10.65
2023-01-11T09:26:41.566Z,10.63
2023-01-11T09:29:08.519Z,10.64
2023-01-11T09:31:35.085Z,10.65
2023-01-11T09:34:01.769Z,10.63
2023-01-11T09:36:29.034Z,10.64
2023-01-11T09:38:57.881Z,10.66
2023-01-11T09:41:50.896Z,10.64
2023-01-11T09:44:25.086Z,10.70
2023-01-11T09:47:00.635Z,10.75
2023-01-11T09:49:29.809Z,10.76
2023-01-11T09:52:09.639Z,10.80
2023-01-11T09:54:36.676Z,10.79
2023-01-11T09:57:18.617Z,10.82
2023-01-11T09:59:53.003Z,11.00
2023-01-11T10:02:41.696Z,11.05
2023-01-11T10:05:23.572Z,11.04
2023-01-11T10:18:28.162Z,11.08
2023-01-11T10:18:31.860Z,11.08
2023-01-11T10:20:45.015Z,11.08
2023-01-11T10:23:29.963Z,11.11
2023-01-11T10:25:59.171Z,11.15
2023-01-11T10:28:43.223Z,11.21
2023-01-11T10:31:43.938Z,11.27
2023-01-11T10:34:37.688Z,11.38
2023-01-11T10:37:40.224Z,11.51
2023-01-11T10:40:35.030Z,11.51
2023-01-11T10:43:04.818Z,11.59
2023-01-11T10:46:11.115Z,11.68
2023-01-11T10:48:42.860Z,11.73
2023-01-11T10:51:18.207Z,11.83
2023-01-11T10:54:33.297Z,11.90
2023-01-11T10:57:18.509Z,12.00
2023-01-11T10:59:59.937Z,12.10
2023-01-11T11:02:40.516Z,12.09
2023-01-11T11:05:19.336Z,12.10
2023-01-11T11:07:57.991Z,12.18
2023-01-11T11:10:47.275Z,12.23
2023-01-11T11:13:26.402Z,12.28
2023-01-11T11:16:13.749Z,12.24
2023-01-11T11:18:42.082Z,12.19
2023-01-11T11:21:19.429Z,12.13
2023-01-11T11:23:47.478Z,12.04
2023-01-11T11:26:13.967Z,12.04
2023-01-11T11:28:59.555Z,12.09
2023-01-11T11:31:26.058Z,12.17
2023-01-11T11:33:52.460Z,12.19
2023-01-11T11:36:19.110Z,12.16
2023-01-11T11:39:10.633Z,12.09
2023-01-11T11:41:47.376Z,12.00
2023-01-11T11:44:25.887Z,11.98
2023-01-11T11:47:07.212Z,11.98
2023-01-11T11:49:35.674Z,11.94
2023-01-11T11:52:04.096Z,11.89
2023-01-11T11:54:33.099Z,11.85
2023-01-11T11:57:15.871Z,11.82
2023-01-11T11:59:48.262Z,11.83
2023-01-11T12:02:22.646Z,11.72
2023-01-11T12:04:49.763Z,11.65
2023-01-11T12:07:21.069Z,11.59
2023-01-11T12:09:50.117Z,11.65
2023-01-11T12:12:21.275Z,11.61
2023-01-11T12:15:08.383Z,11.63
2023-01-11T12:17:35.362Z,11.54
2023-01-11T12:20:01.751Z,11.57
2023-01-11T12:22:29.266Z,11.59
2023-01-11T12:25:25.501Z,11.55
2023-01-11T12:28:17.181Z,11.62
2023-01-11T12:30:58.300Z,11.65
2023-01-11T12:33:52.731Z,11.77
2023-01-11T12:36:43.511Z,11.85
2023-01-11T12:39:21.561Z,11.96
2023-01-11T12:42:08.494Z,12.01
2023-01-11T12:44:59.687Z,12.03
2023-01-11T12:47:57.179Z,11.97
2023-01-11T12:50:28.469Z,11.86
2023-01-11T12:53:36.727Z,11.83
2023-01-11T12:56:17.386Z,11.73
2023-01-11T12:58:47.278Z,11.65
2023-01-11T13:01:37.416Z,11.54
2023-01-11T13:04:31.637Z,11.59
2023-01-11T13:07:06.194Z,11.62
2023-01-11T13:09:56.838Z,11.58
2023-01-11T13:12:30.477Z,11.53
2023-01-11T13:15:05.653Z,11.47
2023-01-11T13:17:52.872Z,11.47
2023-01-11T13:20:23.358Z,11.53
2023-01-11T13:22:54.367Z,11.46
2023-01-11T13:25:27.285Z,11.46
2023-01-11T13:27:55.732Z,11.44
2023-01-11T13:30:24.989Z,11.46
2023-01-11T13:33:06.671Z,11.54
2023-01-11T13:35:56.503Z,11.59
2023-01-11T13:38:43.277Z,11.54
2023-01-11T13:41:18.000Z,11.40
2023-01-11T13:43:56.412Z,11.44
2023-01-11T13:46:32.096Z,11.46
2023-01-11T13:49:23.730Z,11.38
2023-01-11T13:52:01.028Z,11.27
2023-01-11T13:55:08.993Z,11.13
2023-01-11T13:57:48.129Z,11.04
2023-01-11T14:00:31.048Z,10.98
2023-01-11T14:03:14.446Z,10.82
2023-01-11T14:05:52.532Z,10.75
2023-01-11T14:08:37.404Z,10.76
2023-01-11T14:11:26.806Z,10.79
2023-01-11T14:14:31.321Z,10.78
2023-01-11T14:17:12.995Z,10.80
2023-01-11T14:19:51.512Z,10.80
2023-01-11T14:22:32.899Z,10.74
2023-01-11T14:25:06.925Z,10.63
2023-01-11T14:27:45.778Z,10.67
2023-01-11T14:30:34.297Z,10.59
2023-01-11T14:33:20.816Z,10.52
2023-01-11T14:36:06.869Z,10.51
2023-01-11T14:38:54.740Z,10.50
2023-01-11T14:42:09.402Z,10.36
2023-01-11T14:44:54.567Z,10.33
2023-01-11T14:47:32.766Z,10.25
2023-01-11T14:50:11.265Z,10.15
2023-01-11T14:52:40.438Z,10.04
2023-01-11T14:55:31.242Z,9.96
2023-01-11T14:58:21.372Z,9.86
2023-01-11T15:00:47.867Z,9.76
2023-01-11T15:03:18.262Z,9.68
2023-01-11T15:06:22.667Z,9.57
2023-01-11T15:08:51.737Z,9.48
2023-01-11T15:11:34.283Z,9.38
2023-01-11T15:14:17.746Z,9.30
2023-01-11T15:17:08.500Z,9.19
2023-01-11T15:19:37.079Z,9.11
2023-01-11T15:22:04.500Z,9.07
2023-01-11T15:24:34.225Z,8.94
2023-01-11T15:27:01.843Z,8.95
2023-01-11T15:29:31.255Z,8.94
2023-01-11T15:32:16.087Z,8.94
2023-01-11T15:34:45.321Z,8.99
2023-01-11T15:37:36.419Z,8.91
2023-01-11T15:40:29.551Z,8.92
2023-01-11T15:43:21.692Z,8.87
2023-01-11T15:46:15.924Z,8.87
2023-01-11T15:48:50.751Z,8.90
2023-01-11T15:51:35.920Z,8.96
2023-01-11T15:54:44.270Z,9.02
2023-01-11T15:57:18.219Z,9.09
2023-01-11T16:00:15.605Z,9.17
2023-01-11T16:02:57.248Z,9.13
2023-01-11T16:05:37.545Z,9.07
2023-01-11T16:08:29.300Z,8.96
2023-01-11T16:10:59.820Z,8.82
2023-01-11T16:13:52.143Z,8.76
2023-01-11T16:16:28.972Z,8.66
2023-01-11T16:19:24.398Z,8.59
2023-01-11T16:21:52.920Z,8.60
2023-01-11T16:24:21.411Z,8.56
2023-01-11T16:26:56.553Z,8.61
2023-01-11T16:29:30.693Z,8.67
2023-01-11T16:32:08.185Z,8.70
2023-01-11T16:34:43.329Z,8.75
2023-01-11T16:37:37.130Z,8.67
2023-01-11T16:40:13.590Z,8.73
2023-01-11T16:42:43.486Z,8.83
2023-01-11T16:45:15.147Z,8.69
2023-01-11T16:47:41.686Z,8.59
2023-01-11T16:50:20.830Z,8.40
2023-01-11T16:52:49.501Z,8.28
2023-01-11T16:55:33.899Z,8.28
2023-01-11T16:58:08.329Z,8.34
2023-01-11T17:00:39.856Z,8.36
2023-01-11T17:03:18.347Z,8.44
2023-01-11T17:06:07.816Z,8.48
2023-01-11T17:08:46.729Z,8.49
2023-01-11T17:11:31.809Z,8.43
2023-01-11T17:14:19.461Z,8.25
2023-01-11T17:16:48.888Z,8.17
2023-01-11T17:19:18.231Z,8.40
2023-01-11T17:22:00.048Z,8.30
2023-01-11T17:24:27.365Z,8.18
2023-01-11T17:26:57.556Z,8.10
2023-01-11T17:29:34.000Z,8.02
2023-01-11T17:32:03.156Z,7.88
2023-01-11T17:34:37.051Z,7.76
2023-01-11T17:37:10.371Z,7.67
2023-01-11T17:39:44.078Z,7.60
2023-01-11T17:42:32.116Z,7.58
2023-01-11T17:45:14.212Z,7.49
2023-01-11T17:47:42.882Z,7.53
2023-01-11T17:50:30.960Z,7.52
2023-01-11T17:53:15.146Z,7.41
2023-01-11T17:56:30.839Z,7.44
2023-01-11T17:59:15.334Z,7.48
2023-01-11T18:01:49.532Z,7.50
2023-01-11T18:04:19.254Z,7.61
2023-01-11T18:06:48.298Z,7.88
2023-01-11T18:09:26.349Z,8.05
2023-01-11T18:11:53.503Z,7.89
2023-01-11T18:14:23.206Z,7.73
2023-01-11T18:17:01.590Z,7.61
2023-01-11T18:19:39.837Z,7.57
2023-01-11T18:22:37.156Z,7.57
2023-01-11T18:25:21.640Z,7.69
2023-01-11T18:27:49.619Z,7.77
2023-01-11T18:30:45.880Z,7.75
2023-01-11T18:33:22.881Z,7.72
2023-01-11T18:35:52.216Z,7.78
2023-01-11T18:38:21.305Z,7.72
2023-01-11T18:40:49.701Z,7.72
2023-01-11T18:43:18.012Z,7.68
2023-01-11T18:45:44.848Z,7.89
2023-01-11T18:48:11.666Z,8.34
2023-01-11T18:50:39.472Z,8.40
2023-01-11T18:53:05.873Z,8.34
2023-01-11T18:55:32.286Z,8.30
2023-01-11T18:57:58.757Z,8.10
2023-01-11T19:00:25.330Z,7.91
2023-01-11T19:03:30.986Z,7.74
2023-01-11T19:05:57.406Z,7.65
2023-01-11T19:08:23.859Z,7.68
2023-01-11T19:10:51.557Z,7.66
2023-01-11T19:13:19.400Z,7.63
2023-01-11T19:15:46.027Z,7.81
2023-01-11T19:18:21.706Z,7.68
2023-01-11T19:20:48.209Z,7.62
2023-01-11T19:26:53.580Z,7.43
2023-01-11T19:29:20.323Z,7.38
2023-01-11T19:31:47.265Z,7.35
2023-01-11T19:34:14.147Z,7.35
2023-01-11T19:36:40.989Z,7.38
2023-01-11T19:39:08.570Z,7.33
2023-01-11T19:41:54.300Z,7.35
2023-01-11T19:44:21.777Z,7.42
2023-01-11T19:46:50.475Z,7.55
2023-01-11T19:49:19.502Z,7.44
2023-01-11T19:51:46.217Z,7.41
2023-01-11T19:54:14.615Z,7.39
2023-01-11T19:56:42.508Z,7.44
2023-01-11T19:59:09.475Z,7.45
2023-01-11T20:01:35.963Z,7.46
2023-01-11T20:04:02.539Z,7.47
2023-01-11T20:06:29.132Z,7.79
2023-01-11T20:08:55.711Z,8.24
2023-01-11T20:11:22.415Z,8.54
2023-01-11T20:13:52.782Z,8.58
2023-01-11T20:16:21.793Z,8.65
2023-01-11T20:18:56.251Z,8.43
2023-01-11T20:21:24.245Z,8.17
2023-01-11T20:23:50.912Z,8.07
2023-01-11T20:26:17.967Z,7.92
2023-01-11T20:28:50.040Z,7.96
2023-01-11T20:31:17.238Z,7.90
2023-01-11T20:33:44.399Z,7.95
2023-01-11T20:36:16.482Z,8.00
2023-01-11T20:38:43.881Z,8.04
2023-01-11T20:41:11.881Z,8.07
2023-01-11T20:43:39.081Z,8.17
2023-01-11T20:46:06.962Z,8.25
2023-01-11T20:48:35.808Z,8.29
2023-01-11T20:51:03.467Z,8.32
2023-01-11T20:53:29.904Z,8.28
2023-01-11T20:55:56.561Z,8.34
2023-01-11T20:58:23.919Z,8.34
2023-01-11T21:00:50.416Z,8.37
2023-01-11T21:03:19.925Z,8.43
2023-01-11T21:05:46.427Z,8.44
2023-01-11T21:08:12.845Z,8.40
2023-01-11T21:10:39.316Z,8.46
2023-01-11T21:15:33.473Z,8.54
2023-01-11T21:17:59.909Z,8.63
2023-01-11T21:20:26.356Z,8.67
2023-01-11T21:22:52.972Z,8.76
2023-01-11T21:25:19.487Z,8.83
2023-01-11T21:27:45.974Z,8.82
2023-01-11T21:30:12.513Z,8.91
2023-01-11T21:32:39.131Z,8.98
2023-01-11T21:35:05.886Z,8.99
2023-01-11T21:37:32.318Z,9.02
2023-01-11T21:39:58.801Z,9.12
2023-01-11T21:42:25.360Z,9.08
2023-01-11T21:44:52.155Z,9.12
2023-01-11T21:47:19.801Z,9.11
2023-01-11T21:49:46.314Z,9.11
2023-01-11T21:52:12.874Z,9.07
2023-01-11T21:54:39.338Z,9.03
2023-01-11T21:57:05.806Z,9.05
2023-01-11T21:59:33.727Z,9.08
2023-01-11T22:02:00.129Z,8.99
2023-01-11T22:04:26.743Z,8.99
2023-01-11T22:06:54.748Z,9.02
2023-01-11T22:09:23.034Z,9.00
2023-01-11T22:11:50.964Z,9.06
2023-01-11T22:14:17.472Z,9.02
2023-01-11T22:16:44.171Z,8.93
2023-01-11T22:19:10.620Z,8.92
2023-01-11T22:21:37.806Z,8.89
2023-01-11T22:24:06.150Z,8.86
2023-01-11T22:26:35.693Z,8.90
2023-01-11T22:29:17.307Z,8.86
2023-01-11T22:31:46.766Z,8.85
2023-01-11T22:34:14.059Z,8.79
2023-01-11T22:36:41.347Z,8.84
2023-01-11T22:39:08.062Z,8.83
2023-01-11T22:41:34.552Z,8.76
2023-01-11T22:44:01.051Z,8.75
2023-01-11T22:46:27.815Z,8.72
2023-01-11T22:48:54.677Z,8.71
2023-01-11T22:51:23.602Z,8.70
2023-01-11T22:53:52.127Z,8.70
2023-01-11T22:56:20.246Z,8.75
2023-01-11T22:58:47.586Z,8.76
2023-01-11T23:01:24.621Z,8.73
2023-01-11T23:03:51.777Z,8.79
2023-01-11T23:06:20.423Z,8.80
2023-01-11T23:08:46.846Z,8.77
2023-01-11T23:11:35.960Z,8.76
2023-01-11T23:14:04.268Z,8.80
2023-01-11T23:16:31.091Z,8.84
2023-01-11T23:18:57.875Z,8.85
2023-01-11T23:21:24.558Z,8.84
2023-01-11T23:23:51.014Z,8.91
2023-01-11T23:26:18.142Z,8.87
2023-01-11T23:28:45.752Z,8.94
2023-01-11T23:31:17.839Z,9.06
2023-01-11T23:33:52.278Z,9.00
2023-01-11T23:36:20.581Z,9.03
2023-01-11T23:38:47.235Z,8.97
2023-01-11T23:41:37.787Z,8.84
2023-01-11T23:44:06.047Z,8.86
2023-01-11T23:46:51.281Z,8.87
2023-01-11T23:49:17.927Z,8.94
2023-01-11T23:51:44.437Z,9.00
2023-01-11T23:54:10.997Z,9.02
2023-01-11T23:56:37.965Z,9.03
2023-01-11T23:59:05.136Z,9.04
